Airfield :
LOGIN :

Register | Disclaimer

   EN    FR    IT 

 










Legend :    VFR   Marginal VFR   IFR   Intensive IFR   Very Intensive IFR
Visi :
Ceiling :
>= 8 km
>= 3000ft
5 to 8 km
1000 to 3000 ft
1500m to 5 km
500 to 1000 ft
800 to 1500m
200 to 500 ft
< 800m
< 200 ft
Symbols :   Thunderstorms  Fog  Heavy snow  Heavy precipitations  Wind > 20 kt
SIGMETs :     Misc.  Thunderstorms  Icing  Turbulence  Mountain Waves  Volcanic Ashes







- Airport Elevation : 296 ft
- IATA code : GKE


ETNG - Geilenkirchen

CURRENT METAR :
  • 191650Z 33003KT 9999 FEW025 SCT300 14/09 Q1020 NOSIG

EXPIRED METARs :
  • 191550Z 31007KT 9999 FEW024 SCT300 16/10 Q1019 NOSIG
  • 191450Z 31008KT 9999 FEW024 BKN300 16/10 Q1019 NOSIG
  • 191350Z 34004KT 9999 SCT022 BKN320 15/10 Q1019 NOSIG

TAF TAF ETNG
Valid from the 19 at 15:00 until the 20 at 06:00 UTC


191400Z 1915/2006 34007KT 9999 SCT025
PROB30
TEMPO 1917/1920 -SHRA SCT025TCU
BECMG 1917/1919 27005KT
BECMG 1923/2001 4000 BR
PROB40
TEMPO 2001/2006 2000 BR -DZ SCT003 BKN005
No reported NOTAMs for that airfield.



MET'MAP, your aeronautical weather chart ! - Copyright ORBIFLY December 2007 - Disclaimer

ORBIFLY MET'MAP TEAM :

Programming & Development : Alexandra Zaïnal
Concept & Development : Baudouin d'Aumeries
Co-Development & Prog : Marc-Olivier Méhu
Technical & hardware support : Manuel Goepfert

Contact : metmap@orbifly.com




SOURCES & CREDITS :

   NOAA